createdAt,value
2024-03-08T00:01:35.979Z,69.76
2024-03-08T00:04:08.432Z,69.67
2024-03-08T00:06:41.101Z,69.68
2024-03-08T00:09:12.509Z,69.96
2024-03-08T00:11:43.899Z,69.98
2024-03-08T00:14:15.431Z,70.14
2024-03-08T00:16:47.183Z,70.27
2024-03-08T00:19:19.079Z,70.61
2024-03-08T00:21:50.602Z,70.81
2024-03-08T00:24:25.613Z,70.72
2024-03-08T00:26:56.929Z,70.70
2024-03-08T00:29:28.924Z,70.82
2024-03-08T00:32:00.436Z,71.05
2024-03-08T00:34:33.052Z,70.68
2024-03-08T00:37:04.369Z,70.51
2024-03-08T00:39:35.811Z,70.27
2024-03-08T00:42:07.566Z,70.09
2024-03-08T00:44:39.166Z,69.67
2024-03-08T00:47:10.885Z,70.03
2024-03-08T00:49:44.334Z,70.19
2024-03-08T00:52:16.840Z,70.29
2024-03-08T00:54:48.435Z,70.19
2024-03-08T00:57:20.333Z,70.09
2024-03-08T00:59:52.095Z,70.32
2024-03-08T01:02:24.674Z,70.29
2024-03-08T01:04:56.322Z,70.48
2024-03-08T01:07:27.719Z,70.85
2024-03-08T01:09:59.157Z,71.02
2024-03-08T01:12:31.278Z,71.05
2024-03-08T01:15:03.428Z,71.17
2024-03-08T01:17:34.981Z,70.84
2024-03-08T01:20:07.419Z,71.02
2024-03-08T01:22:38.933Z,71.06
2024-03-08T01:25:11.650Z,71.16
2024-03-08T01:27:43.128Z,71.53
2024-03-08T01:30:18.854Z,71.59
2024-03-08T01:32:50.334Z,72.00
2024-03-08T01:35:23.813Z,71.97
2024-03-08T01:37:55.426Z,71.82
2024-03-08T01:40:26.790Z,72.02
2024-03-08T01:42:58.231Z,72.14
2024-03-08T01:45:30.737Z,71.66
2024-03-08T01:48:02.393Z,71.73
2024-03-08T01:50:33.930Z,71.80
2024-03-08T01:53:06.373Z,71.60
2024-03-08T01:55:39.203Z,71.43
2024-03-08T01:58:12.283Z,71.61
2024-03-08T02:00:46.464Z,72.21
2024-03-08T02:03:18.204Z,72.29
2024-03-08T02:05:51.460Z,71.80
2024-03-08T02:08:24.183Z,71.83
2024-03-08T02:10:55.876Z,71.39
2024-03-08T02:13:28.810Z,70.97
2024-03-08T02:16:01.833Z,71.18
2024-03-08T02:18:36.304Z,71.59
2024-03-08T02:21:10.618Z,71.66
2024-03-08T02:23:42.448Z,71.95
2024-03-08T02:26:14.253Z,71.43
2024-03-08T02:28:47.243Z,71.55
2024-03-08T02:31:19.044Z,71.37
2024-03-08T02:33:50.626Z,71.48
2024-03-08T02:36:23.103Z,71.58
2024-03-08T02:38:57.042Z,71.78
2024-03-08T02:41:29.863Z,72.13
2024-03-08T02:44:01.309Z,72.46
2024-03-08T02:46:32.814Z,72.37
2024-03-08T02:49:04.289Z,72.66
2024-03-08T02:51:36.786Z,72.70
2024-03-08T02:54:09.631Z,72.66
2024-03-08T02:56:41.188Z,72.08
2024-03-08T02:59:12.497Z,72.21
2024-03-08T03:01:44.457Z,72.17
2024-03-08T03:04:16.258Z,72.55
2024-03-08T03:06:47.539Z,73.00
2024-03-08T03:09:24.942Z,73.05
2024-03-08T03:11:56.895Z,73.27
2024-03-08T03:14:28.661Z,73.19
2024-03-08T03:17:00.004Z,72.73
2024-03-08T03:19:31.624Z,72.65
2024-03-08T03:22:04.616Z,73.19
2024-03-08T03:24:39.664Z,73.57
2024-03-08T03:27:13.270Z,73.53
2024-03-08T03:29:47.206Z,73.35
2024-03-08T03:32:20.162Z,73.07
2024-03-08T03:34:54.172Z,72.83
2024-03-08T03:37:25.808Z,73.29
2024-03-08T03:40:04.620Z,73.26
2024-03-08T03:42:35.867Z,73.32
2024-03-08T03:45:10.828Z,73.16
2024-03-08T03:47:42.205Z,72.98
2024-03-08T03:50:14.285Z,72.98
2024-03-08T03:52:45.802Z,73.44
2024-03-08T03:55:17.696Z,73.25
2024-03-08T03:57:49.785Z,73.21
2024-03-08T04:00:21.786Z,73.39
2024-03-08T04:03:11.369Z,73.61
2024-03-08T04:05:51.563Z,73.89
2024-03-08T04:08:29.075Z,73.83
2024-03-08T04:11:00.914Z,73.78
2024-03-08T04:13:32.716Z,73.61
2024-03-08T04:16:04.139Z,73.44
2024-03-08T04:18:37.176Z,73.44
2024-03-08T04:21:10.368Z,73.51
2024-03-08T04:23:41.810Z,73.63
2024-03-08T04:26:16.712Z,73.72
2024-03-08T04:28:49.631Z,73.54
2024-03-08T04:31:21.112Z,73.11
2024-03-08T04:33:52.864Z,73.05
2024-03-08T04:36:26.294Z,73.23
2024-03-08T04:38:58.071Z,73.16
2024-03-08T04:41:31.620Z,73.27
2024-03-08T04:44:03.250Z,73.30
2024-03-08T04:46:36.737Z,73.79
2024-03-08T04:49:08.612Z,73.67
2024-03-08T04:51:40.107Z,72.90
2024-03-08T04:54:11.821Z,72.54
2024-03-08T04:56:44.120Z,72.72
2024-03-08T04:59:15.857Z,72.53
2024-03-08T05:01:48.741Z,73.02
2024-03-08T05:04:20.708Z,73.51
2024-03-08T05:06:52.536Z,73.43
2024-03-08T05:09:25.086Z,73.69
2024-03-08T05:11:56.482Z,73.51
2024-03-08T05:14:28.093Z,73.23
2024-03-08T05:16:59.567Z,73.33
2024-03-08T05:19:34.780Z,74.02
2024-03-08T05:22:06.938Z,73.76
2024-03-08T05:24:39.653Z,73.51
2024-03-08T05:27:11.058Z,73.36
2024-03-08T05:29:42.599Z,73.00
2024-03-08T05:32:14.122Z,73.42
2024-03-08T05:34:45.952Z,73.56
2024-03-08T05:37:17.582Z,73.71
2024-03-08T05:39:49.836Z,73.71
2024-03-08T05:42:22.084Z,73.75
2024-03-08T05:44:53.540Z,73.47
2024-03-08T05:47:26.587Z,73.67
2024-03-08T05:49:59.950Z,72.50
2024-03-08T05:52:31.668Z,71.13
2024-03-08T05:55:04.401Z,69.65
2024-03-08T05:57:35.709Z,68.27
2024-03-08T06:00:12.553Z,66.91
2024-03-08T06:02:44.520Z,65.69
2024-03-08T06:05:16.058Z,64.63
2024-03-08T06:07:47.725Z,64.28
2024-03-08T06:10:19.282Z,65.15
2024-03-08T06:12:50.611Z,64.74
2024-03-08T06:15:22.508Z,63.90
2024-03-08T06:17:54.959Z,63.51
2024-03-08T06:20:27.699Z,63.66
2024-03-08T06:23:01.133Z,63.39
2024-03-08T06:25:32.718Z,63.70
2024-03-08T06:28:04.633Z,63.43
2024-03-08T06:30:36.333Z,62.99
2024-03-08T06:33:09.823Z,63.15
2024-03-08T06:35:41.602Z,63.12
2024-03-08T06:38:14.633Z,63.33
2024-03-08T06:41:03.961Z,62.79
2024-03-08T06:43:35.839Z,62.39
2024-03-08T06:46:08.949Z,62.23
2024-03-08T06:48:41.650Z,62.01
2024-03-08T06:51:14.273Z,62.12
2024-03-08T06:53:48.520Z,62.07
2024-03-08T06:56:21.232Z,62.24
2024-03-08T06:58:55.365Z,62.10
2024-03-08T07:01:39.148Z,61.81
2024-03-08T07:04:13.411Z,61.39
2024-03-08T07:06:47.310Z,60.93
2024-03-08T07:09:21.036Z,60.60
2024-03-08T07:11:56.337Z,60.56
2024-03-08T07:14:29.079Z,59.93
2024-03-08T07:17:04.037Z,59.44
2024-03-08T07:19:37.334Z,58.75
2024-03-08T07:22:11.744Z,58.05
2024-03-08T07:25:06.410Z,57.92
2024-03-08T07:27:38.323Z,57.94
2024-03-08T07:30:14.239Z,57.46
2024-03-08T07:32:47.476Z,56.98
2024-03-08T07:35:21.101Z,57.36
2024-03-08T07:37:53.087Z,57.33
2024-03-08T07:40:25.116Z,57.09
2024-03-08T07:42:57.274Z,57.37
2024-03-08T07:45:29.593Z,57.23
2024-03-08T07:48:01.779Z,57.36
2024-03-08T07:50:34.896Z,56.94
2024-03-08T07:53:07.932Z,56.71
2024-03-08T07:55:41.436Z,56.95
2024-03-08T07:58:15.118Z,56.75
2024-03-08T08:00:48.061Z,56.64
2024-03-08T08:03:22.498Z,56.66
2024-03-08T08:05:55.362Z,56.72
2024-03-08T08:08:27.888Z,56.32
2024-03-08T08:10:59.909Z,56.74
2024-03-08T08:13:33.972Z,56.64
2024-03-08T08:16:07.286Z,56.54
2024-03-08T08:18:42.411Z,55.68
2024-03-08T08:21:14.221Z,55.42
2024-03-08T08:23:47.471Z,55.89
2024-03-08T08:26:20.266Z,55.42
2024-03-08T08:28:56.383Z,55.34
2024-03-08T08:31:28.589Z,55.10
2024-03-08T08:34:01.396Z,55.34
2024-03-08T08:36:35.544Z,55.78
2024-03-08T08:39:14.085Z,55.44
2024-03-08T08:41:51.147Z,55.47
2024-03-08T08:44:23.525Z,55.56
2024-03-08T08:46:59.754Z,55.56
2024-03-08T08:49:39.337Z,55.62
2024-03-08T08:52:16.550Z,55.21
2024-03-08T08:54:51.421Z,54.19
2024-03-08T08:57:24.596Z,54.44
2024-03-08T09:00:03.551Z,54.76
2024-03-08T09:02:39.323Z,54.88
2024-03-08T09:05:16.582Z,55.20
2024-03-08T09:07:48.800Z,55.06
2024-03-08T09:10:23.242Z,54.77
2024-03-08T09:12:55.056Z,54.69
2024-03-08T09:15:30.460Z,54.63
2024-03-08T09:18:02.651Z,54.16
2024-03-08T09:20:35.129Z,54.52
2024-03-08T09:23:07.748Z,54.35
2024-03-08T09:25:40.568Z,54.00
2024-03-08T09:28:13.709Z,53.43
2024-03-08T09:30:54.065Z,53.43
2024-03-08T09:33:32.651Z,53.31
2024-03-08T09:36:05.444Z,53.45
2024-03-08T09:38:37.730Z,53.82
2024-03-08T09:41:11.877Z,53.54
2024-03-08T09:43:44.344Z,53.15
2024-03-08T09:46:17.474Z,52.55
2024-03-08T09:48:52.273Z,52.03
2024-03-08T09:51:25.340Z,52.12
2024-03-08T09:53:57.578Z,52.22
2024-03-08T09:56:30.607Z,51.76
2024-03-08T09:59:42.681Z,51.84
2024-03-08T10:02:20.125Z,51.32
2024-03-08T10:04:54.928Z,50.93
2024-03-08T10:07:26.251Z,51.29
2024-03-08T10:09:59.466Z,52.17
2024-03-08T10:12:33.084Z,51.33
2024-03-08T10:15:05.377Z,51.32
2024-03-08T10:17:37.405Z,50.77
2024-03-08T10:20:19.281Z,49.98
2024-03-08T10:22:58.761Z,50.16
2024-03-08T10:25:41.573Z,50.39
2024-03-08T10:28:14.239Z,50.72
2024-03-08T10:30:52.159Z,50.15
2024-03-08T10:33:26.760Z,49.48
2024-03-08T10:35:59.711Z,48.55
2024-03-08T10:38:35.546Z,48.70
2024-03-08T10:41:10.343Z,49.03
2024-03-08T10:44:09.991Z,49.33
2024-03-08T10:47:02.689Z,49.60
2024-03-08T10:49:41.217Z,48.96
2024-03-08T10:52:15.749Z,48.78
2024-03-08T10:54:50.589Z,48.97
2024-03-08T10:57:25.906Z,49.11
2024-03-08T10:59:59.941Z,49.79
2024-03-08T11:02:33.455Z,50.10
2024-03-08T11:05:14.429Z,50.14
2024-03-08T11:07:49.491Z,50.51
2024-03-08T11:10:26.799Z,50.23
2024-03-08T11:13:00.206Z,50.18
2024-03-08T11:15:35.478Z,50.21
2024-03-08T11:18:11.998Z,50.44
2024-03-08T11:20:44.142Z,50.43
2024-03-08T11:23:16.305Z,49.76
2024-03-08T11:25:52.001Z,49.46
2024-03-08T11:28:25.968Z,49.34
2024-03-08T11:31:30.156Z,49.18
2024-03-08T11:34:02.713Z,49.15
2024-03-08T11:36:39.366Z,49.25
2024-03-08T11:39:16.152Z,48.94
2024-03-08T11:41:48.054Z,48.36
2024-03-08T11:44:19.784Z,48.51
2024-03-08T11:46:51.292Z,48.73
2024-03-08T11:49:23.651Z,48.83
2024-03-08T11:51:57.971Z,48.62
2024-03-08T11:54:31.357Z,48.39
2024-03-08T11:57:03.685Z,48.57
2024-03-08T11:59:35.565Z,48.82
2024-03-08T12:02:11.763Z,48.51
2024-03-08T12:04:43.658Z,48.05
2024-03-08T12:07:20.400Z,48.27
2024-03-08T12:10:23.391Z,47.96
2024-03-08T12:13:00.951Z,48.04
2024-03-08T12:15:36.483Z,47.98
2024-03-08T12:18:09.278Z,48.21
2024-03-08T12:20:45.783Z,48.41
2024-03-08T12:23:20.584Z,48.17
2024-03-08T12:25:52.790Z,47.77
2024-03-08T12:28:24.501Z,48.13
2024-03-08T12:30:58.736Z,48.31
2024-03-08T12:33:31.162Z,47.89
2024-03-08T12:36:08.402Z,48.06
2024-03-08T12:38:40.102Z,47.27
2024-03-08T12:41:14.576Z,46.79
2024-03-08T12:43:50.185Z,47.42
2024-03-08T12:46:23.604Z,47.86
2024-03-08T12:48:55.593Z,47.15
2024-03-08T12:51:27.220Z,47.20
2024-03-08T12:53:59.200Z,47.30
2024-03-08T12:56:35.381Z,47.25
2024-03-08T12:59:07.866Z,47.21
2024-03-08T13:01:40.334Z,47.31
2024-03-08T13:04:13.058Z,46.97
2024-03-08T13:06:44.833Z,46.68
2024-03-08T13:09:16.997Z,45.54
2024-03-08T13:11:50.251Z,45.89
2024-03-08T13:14:22.280Z,46.13
2024-03-08T13:16:57.167Z,46.47
2024-03-08T13:19:29.754Z,46.77
2024-03-08T13:22:05.896Z,46.41
2024-03-08T13:24:38.598Z,46.68
2024-03-08T13:27:20.873Z,46.77
2024-03-08T13:29:53.970Z,46.83
2024-03-08T13:32:26.724Z,46.33
2024-03-08T13:34:58.695Z,46.35
2024-03-08T13:37:30.978Z,46.60
2024-03-08T13:40:03.406Z,46.40
2024-03-08T13:42:35.278Z,46.53
2024-03-08T13:45:09.136Z,46.59
2024-03-08T13:47:42.513Z,47.06
2024-03-08T13:50:17.819Z,47.06
2024-03-08T13:52:53.554Z,46.81
2024-03-08T13:55:29.226Z,46.66
2024-03-08T13:58:01.948Z,46.40
2024-03-08T14:00:35.146Z,45.94
2024-03-08T14:03:08.481Z,46.19
2024-03-08T14:05:41.096Z,46.41
2024-03-08T14:08:14.251Z,46.73
2024-03-08T14:10:48.674Z,47.05
2024-03-08T14:13:22.718Z,46.76
2024-03-08T14:15:55.770Z,47.03
2024-03-08T14:18:27.388Z,46.95
2024-03-08T14:21:00.279Z,46.98
2024-03-08T14:23:34.432Z,46.73
2024-03-08T14:26:09.682Z,46.85
2024-03-08T14:28:43.221Z,46.73
2024-03-08T14:31:21.037Z,46.87
2024-03-08T14:33:52.967Z,46.76
2024-03-08T14:36:27.085Z,46.39
2024-03-08T14:38:58.774Z,46.02
2024-03-08T14:41:31.456Z,46.13
2024-03-08T14:44:03.756Z,46.20
2024-03-08T14:46:35.466Z,46.27
2024-03-08T14:49:09.967Z,46.24
2024-03-08T14:51:42.318Z,46.38
2024-03-08T14:54:19.137Z,46.45
2024-03-08T14:56:52.030Z,46.34
2024-03-08T14:59:24.665Z,46.77
2024-03-08T15:01:57.675Z,47.04
2024-03-08T15:04:29.685Z,46.95
2024-03-08T15:07:03.332Z,46.78
2024-03-08T15:09:41.280Z,46.90
2024-03-08T15:12:13.337Z,47.13
2024-03-08T15:14:47.790Z,47.16
2024-03-08T15:17:22.515Z,47.01
2024-03-08T15:19:53.810Z,47.38
2024-03-08T15:22:25.862Z,47.77
2024-03-08T15:24:59.664Z,47.75
2024-03-08T15:27:31.282Z,47.81
2024-03-08T15:30:04.731Z,47.63
2024-03-08T15:32:38.933Z,47.56
2024-03-08T15:35:15.065Z,47.99
2024-03-08T15:37:47.277Z,48.27
2024-03-08T15:40:23.789Z,48.20
2024-03-08T15:43:01.249Z,48.38
2024-03-08T15:45:33.801Z,48.62
2024-03-08T15:48:07.391Z,48.75
2024-03-08T15:50:39.840Z,48.70
2024-03-08T15:53:13.112Z,48.99
2024-03-08T15:55:49.773Z,49.50
2024-03-08T15:58:25.942Z,49.39
2024-03-08T16:01:00.884Z,49.50
2024-03-08T16:03:33.985Z,49.55
2024-03-08T16:06:09.638Z,49.49
2024-03-08T16:08:41.981Z,49.50
2024-03-08T16:11:20.318Z,50.06
2024-03-08T16:13:53.145Z,50.36
2024-03-08T16:16:28.830Z,50.34
2024-03-08T16:19:09.802Z,50.01
2024-03-08T16:21:46.128Z,50.19
2024-03-08T16:24:19.631Z,50.55
2024-03-08T16:26:53.901Z,50.80
2024-03-08T16:29:26.356Z,51.00
2024-03-08T16:32:00.995Z,51.15
2024-03-08T16:34:38.872Z,51.07
2024-03-08T16:37:15.391Z,51.32
2024-03-08T16:39:50.779Z,51.56
2024-03-08T16:42:28.521Z,51.64
2024-03-08T16:45:03.374Z,51.85
2024-03-08T16:47:40.981Z,52.05
2024-03-08T16:50:16.497Z,51.95
2024-03-08T16:52:56.822Z,52.16
2024-03-08T16:55:36.367Z,52.32
2024-03-08T16:58:17.003Z,52.62
2024-03-08T17:00:54.426Z,52.74
2024-03-08T17:03:56.524Z,52.58
2024-03-08T17:06:39.410Z,52.87
2024-03-08T17:09:14.796Z,52.95
2024-03-08T17:11:52.334Z,52.87
2024-03-08T17:14:29.650Z,53.28
2024-03-08T17:17:09.906Z,53.52
2024-03-08T17:19:44.956Z,53.86
2024-03-08T17:22:31.072Z,54.21
2024-03-08T17:25:11.564Z,54.24
2024-03-08T17:27:51.261Z,53.85
2024-03-08T17:30:28.233Z,54.20
2024-03-08T17:33:05.668Z,54.46
2024-03-08T17:35:39.842Z,54.71
2024-03-08T17:38:16.795Z,54.95
2024-03-08T17:40:49.919Z,55.61
2024-03-08T17:43:25.184Z,56.10
2024-03-08T17:46:00.290Z,56.33
2024-03-08T17:48:34.138Z,56.55
2024-03-08T17:51:10.205Z,56.46
2024-03-08T17:53:43.530Z,57.06
2024-03-08T17:56:18.358Z,57.55
2024-03-08T17:59:01.591Z,57.74
2024-03-08T18:01:39.407Z,57.47
2024-03-08T18:04:12.299Z,57.70
2024-03-08T18:06:52.929Z,57.55
2024-03-08T18:09:28.370Z,57.76
2024-03-08T18:12:06.586Z,58.41
2024-03-08T18:14:42.750Z,58.81
2024-03-08T18:17:15.766Z,58.67
2024-03-08T18:19:51.774Z,58.80
2024-03-08T18:22:25.658Z,59.07
2024-03-08T18:24:59.766Z,59.68
2024-03-08T18:27:31.922Z,60.10
2024-03-08T18:30:05.891Z,60.45
2024-03-08T18:32:37.686Z,60.50
2024-03-08T18:35:12.726Z,60.52
2024-03-08T18:37:46.663Z,60.46
2024-03-08T18:40:24.722Z,60.16
2024-03-08T18:42:59.738Z,60.22
2024-03-08T18:45:36.445Z,60.08
2024-03-08T18:48:13.429Z,59.96
2024-03-08T18:50:47.398Z,60.34
2024-03-08T18:53:21.196Z,60.72
2024-03-08T18:55:55.614Z,61.23
2024-03-08T18:58:39.169Z,61.53
2024-03-08T19:01:23.096Z,61.73
2024-03-08T19:03:56.755Z,61.32
2024-03-08T19:06:32.780Z,61.56
2024-03-08T19:09:06.871Z,62.04
2024-03-08T19:11:41.346Z,62.49
2024-03-08T19:14:13.760Z,62.79
2024-03-08T19:16:49.910Z,62.74
2024-03-08T19:19:24.356Z,62.94
2024-03-08T19:21:57.175Z,63.13
2024-03-08T19:24:29.134Z,62.93
2024-03-08T19:27:02.574Z,63.66
2024-03-08T19:29:34.523Z,64.05
2024-03-08T19:32:07.091Z,64.18
2024-03-08T19:34:40.639Z,64.21
2024-03-08T19:37:12.994Z,64.61
2024-03-08T19:39:46.289Z,64.66
2024-03-08T19:42:18.354Z,64.43
2024-03-08T19:44:51.738Z,64.40
2024-03-08T19:47:24.525Z,64.65
2024-03-08T19:49:58.187Z,64.66
2024-03-08T19:52:30.657Z,64.61
2024-03-08T19:55:02.545Z,65.19
2024-03-08T19:57:34.834Z,65.66
2024-03-08T20:00:16.795Z,65.77
2024-03-08T20:02:49.666Z,65.42
2024-03-08T20:05:23.753Z,65.87
2024-03-08T20:07:57.047Z,66.61
2024-03-08T20:10:30.238Z,66.98
2024-03-08T20:13:03.494Z,67.15
2024-03-08T20:15:41.944Z,67.03
2024-03-08T20:18:14.782Z,66.61
2024-03-08T20:20:50.253Z,66.55
2024-03-08T20:23:23.161Z,66.40
2024-03-08T20:25:55.442Z,66.86
2024-03-08T20:28:28.015Z,66.70
2024-03-08T20:31:00.248Z,66.57
2024-03-08T20:33:33.509Z,66.94
2024-03-08T20:36:07.066Z,67.44
2024-03-08T20:38:42.469Z,67.93
2024-03-08T20:41:16.953Z,67.91
2024-03-08T20:43:49.087Z,67.97
2024-03-08T20:46:21.101Z,68.03
2024-03-08T20:48:53.054Z,67.91
2024-03-08T20:51:26.801Z,67.61
2024-03-08T20:53:59.525Z,67.71
2024-03-08T20:56:32.425Z,67.78
2024-03-08T20:59:04.864Z,67.79
2024-03-08T21:01:37.949Z,67.72
2024-03-08T21:04:14.629Z,68.04
2024-03-08T21:06:49.507Z,67.74
2024-03-08T21:09:21.991Z,67.39
2024-03-08T21:11:54.110Z,66.94
2024-03-08T21:14:26.122Z,67.42
2024-03-08T21:17:00.242Z,67.82
2024-03-08T21:19:34.419Z,67.55
2024-03-08T21:22:06.864Z,67.60
2024-03-08T21:24:40.954Z,67.60
2024-03-08T21:27:12.690Z,67.24
2024-03-08T21:29:45.248Z,67.19
2024-03-08T21:32:16.988Z,67.25
2024-03-08T21:34:50.794Z,67.21
2024-03-08T21:37:22.754Z,66.77
2024-03-08T21:39:56.118Z,67.19
2024-03-08T21:42:28.569Z,67.47
2024-03-08T21:45:00.488Z,67.42
2024-03-08T21:47:32.908Z,67.31
2024-03-08T21:50:05.072Z,66.85
2024-03-08T21:52:37.796Z,66.98
2024-03-08T21:55:11.626Z,66.85
2024-03-08T21:57:45.657Z,66.87
2024-03-08T22:00:19.074Z,67.28
2024-03-08T22:02:51.440Z,67.15
2024-03-08T22:05:24.991Z,66.70
2024-03-08T22:07:57.092Z,66.63
2024-03-08T22:10:31.133Z,66.58
2024-03-08T22:13:03.184Z,66.33
2024-03-08T22:15:35.327Z,66.81
2024-03-08T22:18:08.010Z,66.89
2024-03-08T22:20:40.138Z,66.88
2024-03-08T22:23:13.242Z,67.08
2024-03-08T22:25:45.483Z,66.64
2024-03-08T22:28:19.301Z,66.29
2024-03-08T22:30:52.997Z,66.49
2024-03-08T22:33:26.527Z,66.66
2024-03-08T22:35:59.387Z,66.59
2024-03-08T22:38:32.024Z,66.97
2024-03-08T22:41:05.047Z,66.88
2024-03-08T22:43:38.659Z,67.07
2024-03-08T22:46:10.699Z,67.14
2024-03-08T22:48:43.193Z,67.64
2024-03-08T22:51:16.712Z,67.58
2024-03-08T22:53:48.095Z,67.36
2024-03-08T22:56:19.740Z,67.58
2024-03-08T22:58:52.708Z,67.73
2024-03-08T23:01:24.759Z,67.67
2024-03-08T23:03:56.349Z,68.13
2024-03-08T23:06:27.857Z,67.67
2024-03-08T23:09:00.010Z,68.07
2024-03-08T23:11:31.442Z,68.32
2024-03-08T23:14:04.462Z,67.74
2024-03-08T23:16:36.616Z,67.58
2024-03-08T23:19:09.092Z,67.74
2024-03-08T23:21:40.699Z,67.47
2024-03-08T23:24:12.532Z,68.06
2024-03-08T23:26:46.590Z,67.57
2024-03-08T23:29:18.992Z,67.17
2024-03-08T23:31:50.476Z,67.30
2024-03-08T23:34:22.150Z,67.41
2024-03-08T23:36:54.556Z,67.71
2024-03-08T23:39:27.576Z,68.21
2024-03-08T23:42:00.358Z,68.62
2024-03-08T23:44:31.924Z,68.44
2024-03-08T23:47:06.756Z,68.35
2024-03-08T23:49:36.502Z,68.45
2024-03-08T23:52:11.328Z,68.44
2024-03-08T23:54:42.431Z,68.56
2024-03-08T23:57:14.739Z,68.12
2024-03-08T23:59:49.029Z,68.19
